Time;durP1;ratioP1;P1;durP2;ratioP2;P2;SDS_P1;SDS_P2;PMS_P1;PMS_P2;Temp;Humidity;BMP_temperature;BMP_pressure;BME280_temperature;BME280_humidity;BME280_pressure;Samples;Min_cycle;Max_cycle;Signal;HPM_P1;HPM_P2
2022/09/27 00:01:17;;;;;;;8.80;8.30;;;10.70;99.90;;;;;;4936725;29;20227;-79
2022/09/27 00:03:44;;;;;;;8.50;8.00;;;10.70;99.90;;;;;;4953247;28;20231;-79
2022/09/27 00:06:15;;;;;;;8.17;7.77;;;10.70;99.90;;;;;;4952137;28;20194;-79
2022/09/27 00:08:42;;;;;;;8.40;8.00;;;10.70;99.90;;;;;;4932764;28;20297;-79
2022/09/27 00:11:14;;;;;;;8.30;7.90;;;10.70;99.90;;;;;;4948903;28;20244;-79
2022/09/27 00:13:41;;;;;;;8.57;8.07;;;10.70;99.90;;;;;;4931748;29;20262;-79
2022/09/27 00:16:10;;;;;;;8.93;8.43;;;10.70;99.90;;;;;;4943360;29;20202;-78
2022/09/27 00:18:37;;;;;;;8.87;8.37;;;10.70;99.90;;;;;;4938790;29;20263;-79
2022/09/27 00:21:06;;;;;;;8.60;8.20;;;10.70;99.90;;;;;;4936081;29;20229;-79
2022/09/27 00:23:33;;;;;;;8.40;8.00;;;10.70;99.90;;;;;;4952192;28;20222;-79
2022/09/27 00:26:00;;;;;;;8.57;8.17;;;10.60;99.90;;;;;;4952704;28;20683;-79
2022/09/27 00:28:28;;;;;;;8.93;8.43;;;10.70;99.90;;;;;;4964066;28;20278;-79
2022/09/27 00:30:55;;;;;;;9.17;8.67;;;10.70;99.90;;;;;;4951624;28;20223;-79
2022/09/27 00:33:23;;;;;;;8.80;8.30;;;10.70;99.90;;;;;;4941493;29;20294;-79
2022/09/27 00:35:50;;;;;;;9.03;8.53;;;10.70;99.90;;;;;;4933098;29;20254;-79
2022/09/27 00:38:17;;;;;;;9.10;8.60;;;10.70;99.90;;;;;;4938382;29;20620;-79
2022/09/27 00:40:44;;;;;;;9.47;8.97;;;10.60;99.90;;;;;;4962878;28;20292;-79
2022/09/27 00:43:17;;;;;;;9.50;9.00;;;10.70;99.90;;;;;;4960425;28;20246;-79
2022/09/27 00:45:47;;;;;;;9.30;8.80;;;10.60;99.90;;;;;;4929244;29;20253;-79
2022/09/27 00:48:17;;;;;;;9.13;8.63;;;10.60;99.90;;;;;;4938108;28;20350;-78
2022/09/27 00:50:48;;;;;;;9.40;8.90;;;10.70;99.90;;;;;;4940708;28;20308;-79
2022/09/27 00:53:20;;;;;;;9.10;8.60;;;10.70;99.90;;;;;;4930618;29;20192;-79
2022/09/27 00:55:52;;;;;;;9.10;8.60;;;10.70;99.90;;;;;;4935038;29;20217;-79
2022/09/27 00:58:22;;;;;;;9.10;8.60;;;10.70;99.90;;;;;;4947271;28;20690;-79
2022/09/27 01:00:53;;;;;;;4.80;4.60;;;10.70;99.90;;;;;;4936898;29;20222;-80
2022/09/27 01:03:26;;;;;;;2.50;2.40;;;10.70;99.90;;;;;;4937935;28;20202;-79
2022/09/27 01:05:55;;;;;;;2.00;1.90;;;10.70;99.90;;;;;;4928993;29;20230;-79
2022/09/27 01:08:22;;;;;;;2.10;2.00;;;10.70;99.90;;;;;;4954135;29;20191;-79
2022/09/27 01:11:04;;;;;;;1.90;1.90;;;10.70;99.90;;;;;;4934050;29;20315;-79
2022/09/27 01:13:40;;;;;;;2.10;2.00;;;10.70;99.90;;;;;;4928738;29;20194;-79
2022/09/27 01:16:14;;;;;;;2.10;2.00;;;10.70;99.90;;;;;;4933386;29;20730;-79
2022/09/27 01:18:51;;;;;;;2.17;2.07;;;10.70;99.90;;;;;;4934700;29;20715;-79
2022/09/27 01:21:36;;;;;;;2.30;2.20;;;10.80;99.90;;;;;;4938271;28;20222;-79
2022/09/27 01:24:38;;;;;;;2.20;2.10;;;10.80;99.90;;;;;;4939410;29;20285;-79
2022/09/27 01:27:56;;;;;;;3.90;3.60;;;10.80;99.90;;;;;;4954441;28;20258;-79
2022/09/27 01:30:26;;;;;;;2.43;2.33;;;10.80;99.90;;;;;;4966524;23;20293;-79
2022/09/27 01:33:08;;;;;;;4.20;4.00;;;10.80;99.90;;;;;;4933916;29;20239;-79
2022/09/27 01:35:40;;;;;;;4.50;4.23;;;10.80;99.90;;;;;;4968596;28;20219;-79
2022/09/27 01:38:15;;;;;;;3.70;3.40;;;10.80;99.90;;;;;;4967830;28;20195;-80
2022/09/27 01:40:52;;;;;;;7.47;7.07;;;10.80;99.90;;;;;;4944078;28;20269;-80
2022/09/27 01:43:57;;;;;;;5.93;5.63;;;10.80;99.90;;;;;;4957503;28;20533;-79
2022/09/27 01:46:33;;;;;;;2.27;2.10;;;10.80;99.90;;;;;;4963049;28;20690;-79
2022/09/27 01:49:39;;;;;;;2.17;2.07;;;10.80;99.90;;;;;;4935793;29;20210;-79
2022/09/27 01:52:09;;;;;;;2.23;2.13;;;10.80;99.90;;;;;;4939769;29;20230;-79
2022/09/27 01:54:40;;;;;;;2.30;2.20;;;10.80;99.90;;;;;;4936800;29;20710;-79
2022/09/27 01:57:36;;;;;;;2.40;2.30;;;10.80;99.90;;;;;;4944639;29;20271;-79
2022/09/27 02:00:10;;;;;;;4.93;4.63;;;10.80;99.90;;;;;;4961557;28;20269;-79
2022/09/27 02:02:47;;;;;;;2.20;2.10;;;10.70;99.90;;;;;;4961319;28;20204;-79
2022/09/27 02:05:37;;;;;;;2.30;2.20;;;10.70;99.90;;;;;;4952020;28;20667;-79
2022/09/27 02:08:29;;;;;;;2.20;2.10;;;10.70;99.90;;;;;;4934841;28;20671;-79
2022/09/27 02:11:03;;;;;;;2.57;2.47;;;10.70;99.90;;;;;;4935945;28;20221;-79
2022/09/27 02:13:37;;;;;;;2.90;2.80;;;10.70;99.90;;;;;;4950574;28;20214;-79
2022/09/27 02:16:31;;;;;;;2.30;2.20;;;10.80;99.90;;;;;;4950042;28;20245;-79
2022/09/27 02:19:07;;;;;;;2.27;2.13;;;10.80;99.90;;;;;;4957785;28;20229;-79
2022/09/27 02:21:43;;;;;;;2.20;2.10;;;10.80;99.90;;;;;;4938976;28;20301;-79
2022/09/27 02:24:18;;;;;;;2.33;2.23;;;10.80;99.90;;;;;;4934285;29;20196;-79
2022/09/27 02:26:49;;;;;;;2.20;2.10;;;10.80;99.90;;;;;;4941472;29;20203;-79
2022/09/27 02:29:20;;;;;;;2.20;2.10;;;10.80;99.90;;;;;;4943573;29;20214;-79
2022/09/27 02:31:51;;;;;;;2.30;2.20;;;10.80;99.90;;;;;;4944046;29;20602;-79
2022/09/27 02:34:23;;;;;;;2.20;2.10;;;10.80;99.90;;;;;;4941176;28;20746;-79
2022/09/27 02:36:52;;;;;;;2.83;2.20;;;10.80;99.90;;;;;;4941141;29;20292;-80
2022/09/27 02:39:20;;;;;;;2.13;2.07;;;10.80;99.90;;;;;;4936869;28;20287;-79
2022/09/27 02:41:50;;;;;;;2.40;2.30;;;10.80;99.90;;;;;;4937351;28;20226;-80
2022/09/27 02:44:20;;;;;;;2.60;2.43;;;10.80;99.90;;;;;;4934796;28;20567;-79
2022/09/27 02:47:11;;;;;;;2.60;2.50;;;10.80;99.90;;;;;;4940495;29;20199;-80
2022/09/27 02:50:00;;;;;;;2.20;2.10;;;10.80;99.90;;;;;;4934383;29;20197;-79
2022/09/27 02:53:10;;;;;;;3.70;2.40;;;10.80;99.90;;;;;;4957866;28;20213;-79
2022/09/27 02:55:51;;;;;;;2.17;2.07;;;10.70;99.90;;;;;;4969590;28;20222;-79
2022/09/27 02:58:51;;;;;;;2.20;2.10;;;10.70;99.90;;;;;;4913426;28;20262;-79
2022/09/27 03:01:37;;;;;;;3.00;2.50;;;10.70;99.90;;;;;;4930160;28;20274;-79
2022/09/27 03:04:17;;;;;;;2.50;2.30;;;10.70;99.90;;;;;;4960236;28;20191;-81
2022/09/27 03:06:47;;;;;;;2.43;2.30;;;10.70;99.90;;;;;;4936920;29;20624;-80
2022/09/27 03:09:19;;;;;;;2.23;2.13;;;10.70;99.90;;;;;;4948238;29;20622;-80
2022/09/27 03:11:46;;;;;;;2.40;2.30;;;10.70;99.90;;;;;;4934266;29;20226;-78
2022/09/27 03:14:13;;;;;;;2.40;2.30;;;10.60;99.90;;;;;;4937827;29;20203;-78
2022/09/27 03:16:49;;;;;;;2.40;2.20;;;10.70;99.90;;;;;;4967999;28;20198;-79
2022/09/27 03:19:34;;;;;;;2.30;2.20;;;10.70;99.90;;;;;;4949451;29;20202;-80
2022/09/27 03:22:22;;;;;;;2.20;2.10;;;10.70;99.90;;;;;;4960571;28;20194;-78
2022/09/27 03:24:49;;;;;;;4.60;4.40;;;10.70;99.90;;;;;;4951718;28;20194;-79
2022/09/27 03:27:16;;;;;;;4.40;4.20;;;10.60;99.90;;;;;;4938998;29;20731;-78
2022/09/27 03:29:43;;;;;;;4.80;4.50;;;10.60;99.90;;;;;;4946154;29;20269;-78
2022/09/27 03:32:11;;;;;;;4.03;3.83;;;10.60;99.90;;;;;;4965946;28;20227;-78
2022/09/27 03:34:56;;;;;;;4.00;3.80;;;10.60;99.90;;;;;;4961418;28;20269;-79
2022/09/27 03:37:25;;;;;;;4.10;3.90;;;10.60;99.90;;;;;;4955046;28;20201;-79
2022/09/27 03:39:52;;;;;;;5.80;5.50;;;10.60;99.90;;;;;;4938513;28;20197;-79
2022/09/27 03:42:19;;;;;;;10.17;9.67;;;10.50;99.90;;;;;;4936007;28;20771;-78
2022/09/27 03:44:51;;;;;;;10.03;9.30;;;10.50;99.90;;;;;;4940005;29;20247;-78
2022/09/27 03:47:18;;;;;;;10.20;9.60;;;10.50;99.90;;;;;;4945745;29;20209;-78
2022/09/27 03:49:45;;;;;;;10.50;9.90;;;10.50;99.90;;;;;;4937450;29;20191;-78
2022/09/27 03:52:12;;;;;;;10.40;9.80;;;10.50;99.90;;;;;;4942856;28;20710;-78
2022/09/27 03:54:41;;;;;;;10.20;9.60;;;10.50;99.90;;;;;;4942284;29;20218;-78
2022/09/27 03:57:08;;;;;;;10.67;9.87;;;10.50;99.90;;;;;;4947623;28;20200;-78
2022/09/27 03:59:36;;;;;;;10.07;9.47;;;10.50;99.90;;;;;;4939662;29;20203;-78
2022/09/27 04:02:23;;;;;;;10.67;10.10;;;10.50;99.90;;;;;;4931704;29;20756;-78
2022/09/27 04:05:26;;;;;;;11.17;10.47;;;10.40;99.90;;;;;;4868954;29;20840;-79
2022/09/27 04:08:05;;;;;;;10.67;10.07;;;10.40;99.90;;;;;;4932477;28;20198;-78
2022/09/27 04:10:35;;;;;;;10.70;10.10;;;10.40;99.90;;;;;;4933138;28;20302;-78
2022/09/27 04:13:03;;;;;;;10.60;9.90;;;10.40;99.90;;;;;;4934770;29;20283;-78
2022/09/27 04:15:34;;;;;;;11.73;10.93;;;10.40;99.90;;;;;;4941121;29;20310;-78
2022/09/27 04:18:24;;;;;;;11.00;10.20;;;10.40;99.90;;;;;;4959455;28;20843;-78
2022/09/27 04:21:27;;;;;;;11.70;10.77;;;10.40;99.90;;;;;;4955723;28;20229;-78
2022/09/27 04:23:56;;;;;;;10.80;10.07;;;10.40;99.90;;;;;;4935235;29;20227;-78
2022/09/27 04:26:25;;;;;;;10.43;9.73;;;10.40;99.90;;;;;;4937585;29;20196;-78
2022/09/27 04:28:59;;;;;;;10.80;10.10;;;10.40;99.90;;;;;;4940461;29;20212;-79
2022/09/27 04:31:26;;;;;;;10.70;9.97;;;10.30;99.90;;;;;;4937304;28;20273;-78
2022/09/27 04:34:02;;;;;;;10.37;9.77;;;10.40;99.90;;;;;;4938203;28;20195;-78
2022/09/27 04:36:32;;;;;;;10.00;9.40;;;10.40;99.90;;;;;;4938496;29;20274;-78
2022/09/27 04:39:04;;;;;;;11.47;10.63;;;10.30;99.90;;;;;;4962779;28;20281;-78
2022/09/27 04:41:34;;;;;;;11.23;10.53;;;10.30;99.90;;;;;;4935865;28;20218;-79
2022/09/27 04:44:01;;;;;;;11.20;10.40;;;10.30;99.90;;;;;;4951376;28;20243;-78
2022/09/27 04:46:30;;;;;;;10.60;10.00;;;10.30;99.90;;;;;;4939727;29;20294;-78
2022/09/27 04:48:57;;;;;;;10.77;9.87;;;10.30;99.90;;;;;;4940711;29;20286;-78
2022/09/27 04:51:25;;;;;;;11.37;10.50;;;10.30;99.90;;;;;;4927580;29;20595;-78
2022/09/27 04:53:53;;;;;;;11.90;11.03;;;10.20;99.90;;;;;;4937505;28;20250;-78
2022/09/27 04:56:21;;;;;;;11.63;10.73;;;10.20;99.90;;;;;;4931383;29;20243;-78
2022/09/27 04:58:49;;;;;;;11.43;10.73;;;10.20;99.90;;;;;;4936981;29;20192;-77
2022/09/27 05:01:16;;;;;;;11.50;10.80;;;10.10;99.90;;;;;;4941481;28;20309;-78
2022/09/27 05:04:12;;;;;;;12.73;11.83;;;10.10;99.90;;;;;;4940854;29;20198;-77
2022/09/27 05:06:43;;;;;;;13.27;12.03;;;10.00;99.90;;;;;;4938313;29;20206;-77
2022/09/27 05:09:18;;;;;;;13.20;12.30;;;10.10;99.90;;;;;;4935062;28;20445;-78
2022/09/27 05:11:50;;;;;;;12.30;11.50;;;10.00;99.90;;;;;;4930949;29;20666;-77
2022/09/27 05:14:33;;;;;;;12.80;11.87;;;10.00;99.90;;;;;;4948783;29;20582;-78
2022/09/27 05:17:16;;;;;;;12.93;11.97;;;9.90;99.90;;;;;;4954377;29;20210;-78
2022/09/27 05:19:42;;;;;;;13.33;12.37;;;9.90;99.90;;;;;;4949182;29;20205;-78
2022/09/27 05:22:12;;;;;;;12.57;11.70;;;9.90;99.90;;;;;;4954232;28;20730;-78
2022/09/27 05:24:39;;;;;;;12.90;12.10;;;9.90;99.90;;;;;;4946774;29;20203;-78
2022/09/27 05:27:09;;;;;;;12.80;12.00;;;9.90;99.90;;;;;;4934363;29;20262;-78
2022/09/27 05:29:38;;;;;;;13.10;12.30;;;9.80;99.90;;;;;;4935878;29;20206;-78
2022/09/27 05:32:10;;;;;;;13.40;12.60;;;9.80;99.90;;;;;;4936423;29;20228;-77
2022/09/27 05:34:37;;;;;;;13.07;12.17;;;9.80;99.90;;;;;;4936938;29;20313;-78
2022/09/27 05:37:04;;;;;;;12.83;12.13;;;9.80;99.90;;;;;;4936693;29;20649;-77
2022/09/27 05:39:37;;;;;;;13.60;12.70;;;9.90;99.90;;;;;;4942979;29;20194;-78
2022/09/27 05:42:06;;;;;;;12.93;12.13;;;9.90;99.90;;;;;;4936128;29;20229;-78
2022/09/27 05:44:34;;;;;;;13.70;12.67;;;9.90;99.90;;;;;;4934021;29;20211;-78
2022/09/27 05:47:03;;;;;;;13.03;12.23;;;9.90;99.90;;;;;;4936817;29;20237;-78
2022/09/27 05:49:31;;;;;;;13.87;12.90;;;9.90;99.90;;;;;;4934553;29;20654;-77
2022/09/27 05:51:58;;;;;;;13.60;12.80;;;9.90;99.90;;;;;;4936526;29;20695;-78
2022/09/27 05:54:28;;;;;;;13.37;12.37;;;9.80;99.90;;;;;;4953267;29;20230;-78
2022/09/27 05:56:57;;;;;;;13.07;12.27;;;9.80;99.90;;;;;;4936752;29;20285;-78
2022/09/27 05:59:43;;;;;;;12.60;11.80;;;9.80;99.90;;;;;;4939429;29;20254;-78
2022/09/27 06:02:23;;;;;;;12.50;11.80;;;9.80;99.90;;;;;;4957762;29;20225;-78
2022/09/27 06:05:09;;;;;;;12.63;11.93;;;9.70;99.90;;;;;;4958359;29;20205;-78
2022/09/27 06:07:59;;;;;;;12.30;11.60;;;9.70;99.90;;;;;;4958758;29;20226;-78
2022/09/27 06:10:32;;;;;;;12.33;11.53;;;9.70;99.90;;;;;;4940658;29;20253;-78
2022/09/27 06:13:02;;;;;;;11.70;11.00;;;9.60;99.90;;;;;;4941048;29;20199;-78
2022/09/27 06:15:36;;;;;;;12.30;11.50;;;9.60;99.90;;;;;;4938642;29;20219;-78
2022/09/27 06:18:06;;;;;;;11.73;11.03;;;9.60;99.90;;;;;;4940854;29;20276;-78
2022/09/27 06:20:34;;;;;;;11.90;11.20;;;9.50;99.90;;;;;;4938032;29;20242;-78
2022/09/27 06:23:06;;;;;;;11.73;11.13;;;9.50;99.90;;;;;;4958141;29;20729;-78
2022/09/27 06:25:33;;;;;;;11.60;11.00;;;9.50;99.90;;;;;;4935286;29;20198;-78
2022/09/27 06:28:19;;;;;;;12.07;11.37;;;9.50;99.90;;;;;;4939480;29;20577;-79
2022/09/27 06:30:50;;;;;;;12.00;11.37;;;9.50;99.90;;;;;;4940563;29;20226;-78
2022/09/27 06:33:45;;;;;;;12.30;11.60;;;9.60;99.90;;;;;;4951041;29;20214;-78
2022/09/27 06:36:12;;;;;;;12.43;11.73;;;9.70;99.90;;;;;;4957350;29;20206;-78
2022/09/27 06:38:40;;;;;;;12.13;11.43;;;9.70;99.90;;;;;;4941000;29;20578;-78
2022/09/27 06:41:22;;;;;;;12.17;11.40;;;9.70;99.90;;;;;;4940720;29;20231;-79
2022/09/27 06:43:58;;;;;;;11.50;10.77;;;9.80;99.90;;;;;;4958074;29;20209;-78
2022/09/27 06:47:03;;;;;;;10.60;9.80;;;9.90;99.90;;;;;;4879856;29;20204;-78
2022/09/27 06:49:46;;;;;;;8.07;7.40;;;10.00;99.90;;;;;;4878765;29;20201;-78
2022/09/27 06:52:15;;;;;;;4.93;4.63;;;10.00;99.90;;;;;;4910148;29;20222;-78
2022/09/27 06:54:42;;;;;;;9.23;8.60;;;10.00;99.90;;;;;;4938062;29;20195;-80
2022/09/27 06:57:09;;;;;;;2.70;2.60;;;10.10;99.90;;;;;;4953097;29;20219;-78
2022/09/27 07:03:07;;;;;;;10.80;10.20;;;10.20;99.90;;;;;;4956589;29;20202;-79
2022/09/27 07:05:57;;;;;;;10.90;10.27;;;10.20;99.90;;;;;;4971568;28;20194;-78
2022/09/27 07:08:43;;;;;;;12.43;11.63;;;10.20;99.90;;;;;;4955807;29;20201;-78
2022/09/27 07:11:11;;;;;;;11.50;10.80;;;10.20;99.90;;;;;;4938894;29;20277;-78
2022/09/27 07:13:41;;;;;;;11.43;10.73;;;10.30;99.90;;;;;;4957982;29;20191;-79
2022/09/27 07:16:11;;;;;;;10.70;10.10;;;10.20;99.90;;;;;;4940898;29;20246;-78
2022/09/27 07:18:41;;;;;;;10.03;9.43;;;10.20;99.90;;;;;;4939006;29;20254;-79
2022/09/27 07:21:11;;;;;;;10.13;9.53;;;10.20;99.90;;;;;;4950981;29;20286;-78
2022/09/27 07:23:38;;;;;;;11.53;10.80;;;10.30;99.90;;;;;;4947011;28;20729;-82
2022/09/27 07:26:09;;;;;;;11.50;10.80;;;10.30;99.90;;;;;;4941691;28;20561;-78
2022/09/27 07:28:36;;;;;;;8.73;8.23;;;10.40;99.90;;;;;;4933364;28;20194;-78
2022/09/27 07:31:04;;;;;;;10.40;9.67;;;10.40;99.90;;;;;;4942809;29;20247;-78
2022/09/27 07:33:32;;;;;;;4.20;3.90;;;10.60;99.90;;;;;;4941045;29;20199;-78
2022/09/27 07:36:06;;;;;;;13.60;12.80;;;10.80;99.90;;;;;;4942169;29;20221;-78
2022/09/27 07:38:35;;;;;;;10.87;10.27;;;10.90;99.90;;;;;;4939546;29;20258;-78
2022/09/27 07:41:06;;;;;;;11.00;10.20;;;11.00;99.90;;;;;;4967761;28;20228;-78
2022/09/27 07:43:33;;;;;;;10.53;9.83;;;11.10;99.90;;;;;;4937656;29;20203;-79
2022/09/27 07:46:00;;;;;;;10.40;9.80;;;11.20;99.90;;;;;;4940875;29;20199;-79
2022/09/27 07:48:37;;;;;;;10.60;10.00;;;11.20;99.90;;;;;;4934216;29;20231;-82
2022/09/27 07:51:19;;;;;;;10.20;9.60;;;11.30;99.90;;;;;;4948022;28;20761;-79
2022/09/27 07:53:51;;;;;;;9.90;9.30;;;11.50;99.90;;;;;;4937134;29;20702;-81
2022/09/27 07:56:38;;;;;;;10.20;9.60;;;11.60;99.90;;;;;;4906385;29;20631;-79
2022/09/27 07:59:06;;;;;;;9.37;8.87;;;11.60;99.90;;;;;;4943247;29;20205;-78
2022/09/27 08:01:34;;;;;;;9.30;8.80;;;11.70;99.90;;;;;;4942452;28;20298;-78
2022/09/27 08:04:01;;;;;;;10.37;9.53;;;11.80;99.90;;;;;;4935462;29;20213;-79
2022/09/27 08:06:29;;;;;;;10.70;9.90;;;11.80;99.90;;;;;;4935636;29;20203;-78
2022/09/27 08:08:58;;;;;;;9.93;9.33;;;12.00;99.90;;;;;;4929890;29;20208;-79
2022/09/27 08:11:26;;;;;;;10.00;9.40;;;12.20;99.90;;;;;;4922980;29;20722;-79
2022/09/27 08:13:55;;;;;;;7.80;7.40;;;12.60;99.90;;;;;;4935290;29;20204;-79
2022/09/27 08:16:25;;;;;;;10.00;9.50;;;12.70;99.90;;;;;;4936794;29;20218;-79
2022/09/27 08:19:13;;;;;;;10.03;9.43;;;12.60;99.90;;;;;;4946879;28;20583;-80
2022/09/27 08:22:07;;;;;;;7.53;7.13;;;12.60;99.90;;;;;;4936373;28;20260;-80
2022/09/27 08:24:43;;;;;;;7.80;7.40;;;12.70;99.90;;;;;;4940733;29;20266;-79
2022/09/27 08:27:25;;;;;;;2.50;2.10;;;12.70;99.90;;;;;;4969048;28;20259;-78
2022/09/27 08:29:54;;;;;;;2.20;2.10;;;12.70;99.90;;;;;;4940157;29;20672;-78
2022/09/27 08:32:22;;;;;;;2.20;2.10;;;12.50;99.90;;;;;;4931952;29;20691;-79
2022/09/27 08:34:49;;;;;;;6.47;6.17;;;12.30;99.90;;;;;;4935194;29;20198;-79
2022/09/27 08:37:16;;;;;;;2.50;2.40;;;12.80;99.90;;;;;;4956317;28;20261;-78
2022/09/27 08:39:44;;;;;;;2.20;2.10;;;13.60;99.90;;;;;;4963122;28;20206;-79
2022/09/27 08:42:21;;;;;;;2.20;2.10;;;14.20;99.90;;;;;;4931213;28;20243;-79
2022/09/27 08:44:59;;;;;;;7.73;7.20;;;14.80;99.90;;;;;;4957888;28;20585;-79
2022/09/27 08:47:32;;;;;;;2.50;2.40;;;14.80;99.90;;;;;;4940411;29;20197;-79
2022/09/27 08:50:04;;;;;;;3.93;3.73;;;14.70;99.90;;;;;;4965309;28;20208;-79
2022/09/27 08:52:35;;;;;;;2.33;2.07;;;14.40;99.90;;;;;;4933207;29;20286;-80
2022/09/27 08:55:21;;;;;;;3.00;2.20;;;14.20;99.90;;;;;;4966194;28;20290;-80
2022/09/27 08:57:53;;;;;;;2.30;2.20;;;13.80;99.90;;;;;;4942137;29;20245;-79
2022/09/27 09:00:20;;;;;;;2.40;2.30;;;13.40;99.90;;;;;;4960779;28;20222;-79
2022/09/27 09:02:49;;;;;;;7.83;7.40;;;13.00;99.90;;;;;;4940787;28;20269;-79
2022/09/27 09:05:22;;;;;;;8.00;7.50;;;12.60;99.90;;;;;;4931848;28;20198;-79
2022/09/27 09:08:06;;;;;;;5.73;5.40;;;12.20;99.90;;;;;;4930825;28;20779;-79
2022/09/27 09:13:52;;;;;;;2.30;2.10;;;11.50;99.90;;;;;;4925919;29;20202;-79
2022/09/27 09:16:30;;;;;;;9.17;8.57;;;11.30;99.90;;;;;;4935171;29;20220;-78
2022/09/27 09:19:14;;;;;;;8.63;8.13;;;11.10;99.90;;;;;;4928834;29;20228;-79
2022/09/27 09:22:12;;;;;;;8.70;8.20;;;11.00;99.90;;;;;;4930593;29;20228;-78
2022/09/27 09:24:50;;;;;;;8.87;8.37;;;10.90;99.90;;;;;;4930375;29;20204;-79
2022/09/27 09:27:30;;;;;;;8.57;8.10;;;10.80;99.90;;;;;;4941559;29;20259;-79
2022/09/27 09:30:18;;;;;;;8.47;7.97;;;10.80;99.90;;;;;;4949039;28;20202;-79
2022/09/27 09:33:21;;;;;;;8.63;8.13;;;10.90;99.90;;;;;;4939535;29;20738;-78
2022/09/27 09:35:53;;;;;;;8.57;8.07;;;10.80;99.90;;;;;;4940538;29;20674;-79
2022/09/27 09:38:24;;;;;;;8.70;8.30;;;11.20;99.90;;;;;;4945003;29;20297;-80
2022/09/27 09:40:58;;;;;;;3.67;3.47;;;11.50;99.90;;;;;;4943677;28;20224;-79
2022/09/27 09:43:33;;;;;;;9.73;9.13;;;11.80;99.90;;;;;;4946282;28;20204;-79
2022/09/27 09:46:09;;;;;;;4.37;4.07;;;12.00;99.90;;;;;;4938634;28;20215;-79
2022/09/27 09:48:43;;;;;;;9.53;8.93;;;12.10;99.90;;;;;;4937653;28;20221;-79
2022/09/27 09:51:16;;;;;;;9.60;9.00;;;12.20;99.90;;;;;;4935639;28;20272;-78
2022/09/27 09:53:49;;;;;;;8.40;7.93;;;12.40;99.90;;;;;;4958942;28;20189;-79
2022/09/27 09:56:24;;;;;;;9.60;9.00;;;12.30;99.90;;;;;;4945184;29;20204;-79
2022/09/27 09:58:57;;;;;;;9.73;9.13;;;12.40;99.90;;;;;;4937110;29;20668;-80
2022/09/27 10:01:35;;;;;;;10.30;9.73;;;12.80;99.90;;;;;;4970741;28;20229;-80
2022/09/27 10:04:03;;;;;;;5.90;5.60;;;13.20;99.90;;;;;;4957416;29;20253;-80
2022/09/27 10:06:31;;;;;;;9.40;8.90;;;13.40;99.90;;;;;;4939922;29;20218;-79
2022/09/27 10:09:00;;;;;;;7.50;7.10;;;13.70;99.90;;;;;;4943126;29;20198;-79
2022/09/27 10:11:41;;;;;;;2.33;2.23;;;14.00;99.90;;;;;;4937045;29;20740;-79
2022/09/27 10:14:19;;;;;;;8.90;8.40;;;14.20;99.90;;;;;;4943524;28;20288;-79
2022/09/27 10:16:49;;;;;;;9.20;8.60;;;14.20;99.90;;;;;;4964085;28;20226;-79
2022/09/27 10:19:21;;;;;;;10.03;9.53;;;14.10;99.90;;;;;;4940197;28;20671;-79
2022/09/27 10:21:50;;;;;;;8.67;8.20;;;14.10;99.90;;;;;;4941443;28;20270;-79
2022/09/27 10:24:18;;;;;;;2.70;2.50;;;14.10;99.90;;;;;;4933469;29;20250;-79
2022/09/27 10:27:01;;;;;;;9.00;8.50;;;14.30;99.90;;;;;;4936304;29;20679;-79
2022/09/27 10:29:33;;;;;;;4.87;4.43;;;14.60;99.90;;;;;;4972244;28;20302;-80
2022/09/27 10:32:03;;;;;;;9.97;9.17;;;14.70;99.90;;;;;;4969507;28;20283;-80
2022/09/27 10:34:40;;;;;;;8.20;7.57;;;14.60;99.90;;;;;;4939443;29;20613;-80
2022/09/27 10:37:17;;;;;;;8.37;7.87;;;14.50;99.90;;;;;;4963616;28;20230;-79
2022/09/27 10:40:25;;;;;;;9.50;8.90;;;14.40;99.90;;;;;;4947502;28;20233;-80
2022/09/27 10:42:52;;;;;;;2.43;2.30;;;14.30;99.90;;;;;;4939142;29;20195;-80
2022/09/27 10:45:31;;;;;;;2.77;2.57;;;14.20;99.90;;;;;;4931409;29;20637;-81
2022/09/27 10:48:21;;;;;;;2.80;2.60;;;14.30;99.90;;;;;;4938864;29;20218;-80
2022/09/27 10:50:58;;;;;;;3.00;2.27;;;14.50;99.90;;;;;;4945667;28;20222;-80
2022/09/27 10:53:34;;;;;;;8.10;7.60;;;14.90;99.90;;;;;;4942740;29;20266;-80
2022/09/27 10:56:14;;;;;;;9.27;8.57;;;15.10;99.90;;;;;;4939649;28;20209;-80
2022/09/27 10:58:41;;;;;;;4.50;4.20;;;15.30;99.90;;;;;;4936720;29;20702;-79
2022/09/27 11:01:14;;;;;;;2.70;2.40;;;15.70;99.90;;;;;;4940792;29;20222;-80
2022/09/27 11:04:00;;;;;;;2.20;2.00;;;15.60;99.90;;;;;;4940003;29;20257;-81
2022/09/27 11:06:31;;;;;;;7.97;7.47;;;15.50;99.90;;;;;;4937890;28;20297;-80
2022/09/27 11:09:17;;;;;;;7.73;7.17;;;15.30;99.90;;;;;;4941104;29;20229;-80
2022/09/27 11:11:45;;;;;;;8.07;7.47;;;15.30;99.90;;;;;;4946692;28;20224;-81
2022/09/27 11:14:19;;;;;;;9.07;8.57;;;15.40;99.90;;;;;;4936389;29;20254;-80
2022/09/27 11:17:03;;;;;;;8.80;8.30;;;15.40;99.90;;;;;;4935703;29;20262;-79
2022/09/27 11:19:44;;;;;;;9.27;8.77;;;15.20;99.90;;;;;;4952057;28;20194;-79
2022/09/27 11:22:34;;;;;;;9.37;8.77;;;14.90;99.90;;;;;;4940238;28;20231;-80
2022/09/27 11:25:14;;;;;;;1.90;1.80;;;14.70;99.90;;;;;;4938195;29;20229;-79
2022/09/27 11:27:59;;;;;;;2.10;2.00;;;14.60;99.90;;;;;;4939762;29;20202;-79
2022/09/27 11:30:37;;;;;;;4.20;3.90;;;14.70;99.90;;;;;;4930366;29;20238;-80
2022/09/27 11:33:39;;;;;;;3.23;2.97;;;14.70;99.90;;;;;;4955519;28;20295;-80
2022/09/27 11:36:11;;;;;;;2.43;2.30;;;14.80;99.90;;;;;;4939733;29;20220;-81
2022/09/27 11:38:50;;;;;;;2.03;1.93;;;14.70;99.90;;;;;;4936721;29;20251;-80
2022/09/27 11:41:31;;;;;;;3.63;3.33;;;14.50;99.90;;;;;;4935576;28;20604;-79
2022/09/27 11:44:23;;;;;;;2.03;1.93;;;14.40;99.90;;;;;;4936463;28;20286;-80
2022/09/27 11:46:58;;;;;;;2.20;2.10;;;14.50;99.90;;;;;;4939773;28;20211;-78
2022/09/27 11:49:44;;;;;;;2.57;2.23;;;14.90;99.90;;;;;;4938531;28;20206;-77
2022/09/27 11:52:25;;;;;;;2.20;2.10;;;15.00;99.90;;;;;;4937820;28;20254;-77
2022/09/27 11:55:10;;;;;;;3.83;3.33;;;15.00;99.90;;;;;;4938530;28;20210;-77
2022/09/27 11:57:42;;;;;;;4.60;4.30;;;15.00;99.90;;;;;;4953395;28;20706;-77
2022/09/27 12:00:19;;;;;;;6.23;4.07;;;14.90;99.90;;;;;;4937009;28;20214;-77
2022/09/27 12:03:22;;;;;;;3.90;3.60;;;14.90;99.90;;;;;;4937904;29;20203;-77
2022/09/27 12:06:02;;;;;;;5.97;5.60;;;14.80;99.90;;;;;;4965483;28;20701;-77
2022/09/27 12:08:49;;;;;;;3.20;3.00;;;14.50;99.90;;;;;;4936145;29;20212;-77
2022/09/27 12:11:22;;;;;;;2.70;2.30;;;14.20;99.90;;;;;;4962086;28;20224;-77
2022/09/27 12:13:57;;;;;;;2.30;2.10;;;14.00;99.90;;;;;;4936874;29;20717;-77
2022/09/27 12:16:26;;;;;;;9.40;8.80;;;13.80;99.90;;;;;;4954428;29;20644;-78
2022/09/27 12:18:54;;;;;;;8.90;8.30;;;13.60;99.90;;;;;;4939692;28;20699;-77
2022/09/27 12:21:48;;;;;;;8.30;7.80;;;13.40;99.90;;;;;;4934470;28;20234;-77
2022/09/27 12:24:21;;;;;;;8.93;8.37;;;13.30;99.90;;;;;;4931524;29;20203;-76
2022/09/27 12:27:23;;;;;;;9.13;8.63;;;13.20;99.90;;;;;;4938012;29;20199;-77
2022/09/27 12:29:52;;;;;;;8.57;8.07;;;13.10;99.90;;;;;;4944910;29;20293;-81
2022/09/27 12:32:23;;;;;;;8.97;8.47;;;12.80;99.90;;;;;;4962155;28;20231;-81
2022/09/27 12:34:56;;;;;;;9.20;8.60;;;12.70;99.90;;;;;;4939419;29;20596;-80
2022/09/27 12:37:28;;;;;;;9.03;8.50;;;12.50;99.90;;;;;;4935918;28;20212;-80
2022/09/27 12:40:03;;;;;;;9.20;8.70;;;12.50;99.90;;;;;;4937784;29;20203;-81
2022/09/27 12:42:40;;;;;;;9.50;8.90;;;12.30;99.90;;;;;;4972802;28;20205;-80
2022/09/27 12:45:16;;;;;;;8.90;8.40;;;12.20;99.90;;;;;;4945225;29;20234;-81
2022/09/27 12:48:01;;;;;;;9.23;8.70;;;12.20;99.90;;;;;;4970237;28;20290;-80
2022/09/27 12:50:35;;;;;;;9.30;8.70;;;12.20;99.90;;;;;;4937229;29;20233;-80
2022/09/27 12:53:10;;;;;;;8.97;8.47;;;12.10;99.90;;;;;;4941449;29;20237;-80
2022/09/27 12:56:10;;;;;;;8.77;8.27;;;12.20;99.90;;;;;;4965418;28;20378;-80
2022/09/27 12:59:02;;;;;;;9.10;8.60;;;12.50;99.90;;;;;;4926282;29;20256;-80
2022/09/27 13:01:46;;;;;;;8.50;8.10;;;12.70;99.90;;;;;;4956791;28;20786;-81
2022/09/27 13:04:32;;;;;;;8.90;8.40;;;12.80;99.90;;;;;;4937643;29;20295;-81
2022/09/27 13:07:21;;;;;;;10.37;9.57;;;12.90;99.90;;;;;;4942489;29;20209;-80
2022/09/27 13:10:25;;;;;;;9.33;8.77;;;13.00;99.90;;;;;;4937525;29;20202;-79
2022/09/27 13:12:55;;;;;;;8.87;8.27;;;13.00;99.90;;;;;;4910052;29;20226;-79
2022/09/27 13:15:27;;;;;;;3.90;3.70;;;13.30;99.90;;;;;;4944498;28;20606;-79
2022/09/27 13:17:58;;;;;;;9.50;9.00;;;13.40;99.90;;;;;;4936219;28;20641;-80
2022/09/27 13:20:47;;;;;;;8.20;7.70;;;13.50;99.90;;;;;;4934507;28;20255;-80
2022/09/27 13:23:51;;;;;;;8.97;8.47;;;13.40;99.90;;;;;;4944396;28;20209;-80
2022/09/27 13:26:22;;;;;;;9.30;8.70;;;13.40;99.90;;;;;;4934984;28;20209;-79
2022/09/27 13:29:02;;;;;;;9.53;8.70;;;13.30;99.90;;;;;;4934421;28;20618;-79
2022/09/27 13:32:03;;;;;;;8.60;8.00;;;13.20;99.90;;;;;;4966294;28;20720;-80
2022/09/27 13:35:11;;;;;;;9.30;8.60;;;13.20;99.90;;;;;;4940823;28;20596;-80